createdAt,value
2022-08-21T00:01:52.233Z,3.10
2022-08-21T00:04:20.888Z,3.20
2022-08-21T00:06:51.297Z,3.50
2022-08-21T00:09:20.005Z,3.15
2022-08-21T00:11:47.342Z,3.17
2022-08-21T00:14:14.795Z,3.25
2022-08-21T00:16:42.597Z,3.28
2022-08-21T00:19:10.145Z,3.10
2022-08-21T00:21:37.963Z,3.03
2022-08-21T00:24:05.441Z,3.22
2022-08-21T00:26:32.537Z,3.25
2022-08-21T00:28:59.520Z,3.50
2022-08-21T00:31:27.607Z,3.10
2022-08-21T00:34:00.577Z,3.38
2022-08-21T00:36:28.294Z,3.10
2022-08-21T00:38:55.296Z,3.30
2022-08-21T00:41:37.569Z,3.30
2022-08-21T00:44:07.873Z,3.17
2022-08-21T00:46:35.323Z,2.92
2022-08-21T00:49:02.486Z,3.10
2022-08-21T00:51:43.230Z,2.95
2022-08-21T00:54:18.311Z,3.20
2022-08-21T00:56:50.195Z,3.15
2022-08-21T00:59:20.463Z,3.90
2022-08-21T01:01:48.099Z,3.00
2022-08-21T01:04:16.811Z,2.67
2022-08-21T01:06:44.384Z,2.97
2022-08-21T01:09:12.668Z,3.33
2022-08-21T01:11:40.076Z,2.78
2022-08-21T01:14:07.164Z,3.25
2022-08-21T01:16:34.516Z,3.40
2022-08-21T01:19:01.740Z,3.15
2022-08-21T01:21:29.319Z,3.00
2022-08-21T01:23:57.903Z,3.53
2022-08-21T01:26:33.830Z,3.08
2022-08-21T01:29:07.321Z,3.35
2022-08-21T01:31:34.372Z,3.63
2022-08-21T01:34:01.722Z,3.20
2022-08-21T01:36:29.193Z,3.55
2022-08-21T01:38:57.093Z,3.38
2022-08-21T01:41:24.171Z,3.90
2022-08-21T01:43:51.232Z,3.72
2022-08-21T01:46:18.805Z,3.10
2022-08-21T01:48:46.089Z,3.20
2022-08-21T01:51:13.173Z,3.28
2022-08-21T01:53:40.436Z,3.17
2022-08-21T01:56:11.913Z,3.63
2022-08-21T01:58:44.558Z,3.40
2022-08-21T02:01:12.281Z,3.20
2022-08-21T02:03:39.606Z,3.67
2022-08-21T02:06:08.621Z,3.47
2022-08-21T02:08:35.816Z,3.13
2022-08-21T02:11:02.948Z,3.50
2022-08-21T02:13:30.121Z,3.50
2022-08-21T02:15:57.145Z,3.40
2022-08-21T02:18:24.330Z,3.33
2022-08-21T02:20:55.721Z,3.17
2022-08-21T02:23:26.884Z,4.28
2022-08-21T02:26:07.680Z,3.42
2022-08-21T02:28:36.382Z,4.32
2022-08-21T02:31:03.872Z,3.53
2022-08-21T02:33:31.237Z,3.55
2022-08-21T02:35:59.883Z,3.15
2022-08-21T02:38:30.575Z,3.45
2022-08-21T02:40:58.500Z,3.42
2022-08-21T02:43:27.303Z,3.00
2022-08-21T02:45:55.620Z,3.63
2022-08-21T02:48:28.137Z,3.75
2022-08-21T02:51:02.405Z,3.10
2022-08-21T02:53:30.886Z,3.05
2022-08-21T02:56:00.449Z,2.97
2022-08-21T02:58:33.794Z,2.80
2022-08-21T03:01:01.597Z,3.10
2022-08-21T03:03:30.570Z,2.72
2022-08-21T03:05:58.613Z,3.17
2022-08-21T03:08:27.418Z,3.20
2022-08-21T03:10:55.215Z,2.88
2022-08-21T03:13:22.347Z,3.40
2022-08-21T03:15:50.971Z,3.00
2022-08-21T03:18:19.125Z,3.50
2022-08-21T03:20:48.841Z,3.17
2022-08-21T03:23:18.596Z,3.00
2022-08-21T03:25:47.826Z,3.33
2022-08-21T03:28:18.560Z,3.40
2022-08-21T03:30:48.022Z,4.35
2022-08-21T03:33:16.043Z,4.18
2022-08-21T03:35:48.034Z,3.92
2022-08-21T03:38:15.570Z,3.42
2022-08-21T03:40:44.268Z,3.20
2022-08-21T03:43:11.781Z,3.92
2022-08-21T03:45:40.051Z,4.10
2022-08-21T03:48:08.468Z,3.63
2022-08-21T03:50:40.662Z,4.10
2022-08-21T03:53:16.767Z,3.30
2022-08-21T03:55:47.689Z,3.95
2022-08-21T03:58:17.702Z,4.10
2022-08-21T04:00:49.988Z,4.97
2022-08-21T04:03:17.572Z,3.92
2022-08-21T04:05:46.635Z,4.40
2022-08-21T04:08:15.759Z,4.22
2022-08-21T04:10:44.894Z,4.70
2022-08-21T04:13:11.904Z,4.65
2022-08-21T04:15:39.223Z,4.85
2022-08-21T04:18:06.864Z,4.00
2022-08-21T04:20:34.210Z,4.47
2022-08-21T04:23:01.757Z,4.25
2022-08-21T04:25:29.682Z,4.43
2022-08-21T04:27:57.010Z,4.05
2022-08-21T04:30:27.957Z,4.47
2022-08-21T04:32:58.474Z,4.18
2022-08-21T04:35:27.779Z,4.78
2022-08-21T04:37:55.169Z,4.68
2022-08-21T04:40:23.289Z,7.32
2022-08-21T04:42:53.164Z,5.47
2022-08-21T04:45:23.171Z,5.40
2022-08-21T04:47:55.093Z,5.07
2022-08-21T04:50:27.258Z,5.10
2022-08-21T04:52:55.280Z,5.40
2022-08-21T04:55:25.009Z,4.40
2022-08-21T04:57:54.663Z,5.80
2022-08-21T05:00:23.464Z,5.28
2022-08-21T05:02:51.131Z,5.18
2022-08-21T05:05:18.294Z,4.90
2022-08-21T05:07:46.509Z,4.45
2022-08-21T05:10:15.186Z,4.15
2022-08-21T05:12:44.022Z,3.90
2022-08-21T05:15:15.945Z,4.00
2022-08-21T05:17:43.274Z,5.45
2022-08-21T05:20:12.521Z,4.35
2022-08-21T05:22:39.610Z,4.57
2022-08-21T05:25:10.590Z,6.30
2022-08-21T05:27:39.780Z,4.90
2022-08-21T05:30:11.046Z,5.95
2022-08-21T05:32:38.320Z,5.03
2022-08-21T05:35:07.465Z,5.47
2022-08-21T05:37:35.118Z,5.65
2022-08-21T05:40:20.318Z,5.40
2022-08-21T05:42:54.616Z,5.13
2022-08-21T05:45:42.806Z,4.45
2022-08-21T05:48:25.283Z,4.07
2022-08-21T05:50:53.350Z,3.63
2022-08-21T05:53:22.115Z,4.85
2022-08-21T05:55:50.380Z,4.63
2022-08-21T05:58:21.898Z,3.03
2022-08-21T06:00:51.112Z,3.15
2022-08-21T06:03:26.145Z,3.80
2022-08-21T06:05:54.538Z,3.47
2022-08-21T06:08:23.211Z,3.00
2022-08-21T06:10:51.805Z,3.30
2022-08-21T06:13:20.474Z,2.85
2022-08-21T06:15:47.428Z,3.47
2022-08-21T06:18:14.554Z,3.38
2022-08-21T06:20:42.432Z,3.75
2022-08-21T06:23:10.116Z,4.07
2022-08-21T06:25:37.303Z,3.28
2022-08-21T06:28:11.115Z,3.97
2022-08-21T06:30:39.493Z,4.70
2022-08-21T06:33:08.024Z,4.00
2022-08-21T06:35:36.262Z,3.53
2022-08-21T06:38:03.287Z,3.83
2022-08-21T06:40:31.375Z,3.58
2022-08-21T06:43:15.136Z,3.40
2022-08-21T06:45:42.862Z,3.78
2022-08-21T06:48:11.929Z,4.53
2022-08-21T06:50:41.289Z,4.90
2022-08-21T06:53:12.611Z,4.07
2022-08-21T06:55:40.564Z,5.25
2022-08-21T06:58:08.062Z,5.05
2022-08-21T07:00:35.667Z,4.93
2022-08-21T07:03:03.581Z,4.50
2022-08-21T07:05:32.210Z,4.63
2022-08-21T07:08:00.271Z,5.53
2022-08-21T07:10:28.213Z,5.88
2022-08-21T07:13:00.245Z,7.18
2022-08-21T07:15:30.367Z,4.50
2022-08-21T07:17:59.049Z,5.35
2022-08-21T07:20:26.760Z,4.80
2022-08-21T07:22:54.300Z,4.82
2022-08-21T07:25:21.584Z,5.00
2022-08-21T07:27:48.547Z,5.65
2022-08-21T07:30:15.627Z,5.03
2022-08-21T07:32:42.592Z,5.22
2022-08-21T07:35:09.834Z,5.70
2022-08-21T07:37:37.112Z,5.10
2022-08-21T07:40:05.288Z,5.30
2022-08-21T07:42:32.330Z,5.07
2022-08-21T07:44:59.479Z,4.95
2022-08-21T07:47:41.297Z,4.90
2022-08-21T07:50:12.488Z,5.20
2022-08-21T07:52:41.141Z,5.75
2022-08-21T07:55:10.920Z,6.07
2022-08-21T07:57:38.676Z,5.32
2022-08-21T08:00:09.147Z,4.35
2022-08-21T08:02:36.407Z,5.18
2022-08-21T08:05:08.906Z,4.28
2022-08-21T08:07:36.624Z,5.00
2022-08-21T08:10:05.749Z,5.35
2022-08-21T08:12:32.771Z,4.97
2022-08-21T08:15:01.706Z,5.97
2022-08-21T08:17:28.965Z,6.47
2022-08-21T08:19:56.549Z,5.45
2022-08-21T08:22:25.100Z,4.78
2022-08-21T08:24:53.711Z,5.78
2022-08-21T08:27:21.294Z,5.60
2022-08-21T08:29:48.649Z,5.38
2022-08-21T08:32:16.884Z,5.05
2022-08-21T08:34:44.333Z,5.40
2022-08-21T08:37:12.123Z,4.95
2022-08-21T08:39:39.718Z,5.57
2022-08-21T08:42:32.693Z,5.57
2022-08-21T08:45:14.731Z,5.18
2022-08-21T08:47:46.602Z,6.45
2022-08-21T08:50:38.768Z,4.95
2022-08-21T08:53:08.258Z,5.40
2022-08-21T08:55:40.019Z,4.88
2022-08-21T08:58:07.533Z,4.50
2022-08-21T09:00:34.941Z,5.63
2022-08-21T09:03:03.973Z,5.95
2022-08-21T09:05:44.309Z,4.90
2022-08-21T09:08:24.414Z,4.85
2022-08-21T09:11:14.278Z,5.43
2022-08-21T09:13:56.340Z,4.80
2022-08-21T09:16:35.476Z,4.60
2022-08-21T09:19:08.249Z,5.03
2022-08-21T09:21:43.934Z,4.10
2022-08-21T09:24:41.906Z,4.68
2022-08-21T09:27:12.344Z,4.20
2022-08-21T09:29:45.652Z,5.45
2022-08-21T09:32:37.511Z,4.70
2022-08-21T09:35:18.543Z,4.20
2022-08-21T09:38:06.604Z,3.15
2022-08-21T09:40:40.059Z,4.03
2022-08-21T09:43:21.615Z,3.28
2022-08-21T09:46:02.115Z,3.38
2022-08-21T09:48:32.693Z,3.00
2022-08-21T09:51:11.313Z,3.72
2022-08-21T09:53:44.063Z,4.18
2022-08-21T09:56:41.932Z,3.63
2022-08-21T09:59:25.631Z,5.38
2022-08-21T10:01:54.357Z,4.43
2022-08-21T10:04:24.633Z,3.72
2022-08-21T10:06:51.669Z,3.25
2022-08-21T10:09:21.982Z,2.67
2022-08-21T10:11:58.585Z,3.03
2022-08-21T10:14:51.805Z,3.20
2022-08-21T10:17:52.861Z,2.80
2022-08-21T10:20:45.352Z,2.30
2022-08-21T10:23:40.103Z,2.22
2022-08-21T10:26:20.994Z,3.08
2022-08-21T10:29:09.135Z,2.63
2022-08-21T10:31:53.780Z,3.20
2022-08-21T10:34:41.500Z,2.95
2022-08-21T10:37:42.362Z,3.03
2022-08-21T10:40:30.660Z,2.92
2022-08-21T10:43:17.927Z,2.67
2022-08-21T10:45:50.823Z,3.33
2022-08-21T10:48:23.407Z,3.15
2022-08-21T10:50:59.073Z,2.65
2022-08-21T10:54:01.836Z,2.33
2022-08-21T10:56:33.759Z,2.20
2022-08-21T10:59:01.670Z,2.60
2022-08-21T11:01:45.962Z,2.00
2022-08-21T11:04:49.607Z,2.33
2022-08-21T11:07:38.372Z,2.22
2022-08-21T11:10:30.773Z,2.28
2022-08-21T11:13:09.713Z,2.03
2022-08-21T11:15:49.366Z,2.10
2022-08-21T11:18:19.431Z,2.53
2022-08-21T11:21:08.064Z,2.25
2022-08-21T11:23:55.865Z,2.75
2022-08-21T11:26:45.927Z,2.05
2022-08-21T11:29:28.739Z,2.28
2022-08-21T11:32:01.787Z,1.92
2022-08-21T11:34:37.893Z,2.55
2022-08-21T11:37:17.554Z,2.35
2022-08-21T11:40:04.890Z,2.90
2022-08-21T11:42:51.682Z,2.20
2022-08-21T11:45:42.844Z,2.22
2022-08-21T11:48:47.308Z,1.90
2022-08-21T11:51:21.717Z,2.03
2022-08-21T11:54:13.326Z,2.22
2022-08-21T11:56:49.495Z,2.28
2022-08-21T11:59:24.725Z,2.42
2022-08-21T12:01:53.781Z,2.30
2022-08-21T12:04:30.250Z,2.45
2022-08-21T12:06:57.901Z,2.40
2022-08-21T12:09:24.988Z,2.17
2022-08-21T12:12:21.551Z,2.13
2022-08-21T12:14:50.853Z,2.70
2022-08-21T12:17:35.467Z,2.15
2022-08-21T12:20:22.739Z,2.72
2022-08-21T12:23:13.237Z,2.03
2022-08-21T12:25:48.058Z,2.60
2022-08-21T12:28:23.033Z,1.90
2022-08-21T12:30:54.947Z,2.40
2022-08-21T12:33:37.601Z,2.17
2022-08-21T12:36:12.981Z,1.80
2022-08-21T12:38:46.453Z,2.00
2022-08-21T12:41:21.363Z,2.15
2022-08-21T12:43:54.273Z,2.13
2022-08-21T12:46:31.308Z,1.85
2022-08-21T12:49:31.864Z,2.20
2022-08-21T12:52:21.669Z,1.70
2022-08-21T12:54:48.959Z,2.13
2022-08-21T12:57:39.227Z,2.00
2022-08-21T13:00:15.824Z,2.10
2022-08-21T13:02:50.582Z,2.20
2022-08-21T13:05:32.143Z,1.98
2022-08-21T13:08:00.448Z,1.83
2022-08-21T13:10:32.158Z,2.08
2022-08-21T13:13:12.704Z,1.50
2022-08-21T13:15:47.467Z,1.92
2022-08-21T13:18:26.659Z,1.60
2022-08-21T13:21:03.677Z,1.70
2022-08-21T13:23:33.677Z,1.75
2022-08-21T13:26:01.255Z,1.63
2022-08-21T13:28:35.807Z,1.98
2022-08-21T13:31:03.237Z,1.85
2022-08-21T13:33:37.664Z,1.58
2022-08-21T13:36:18.459Z,1.73
2022-08-21T13:38:47.702Z,1.88
2022-08-21T13:41:29.988Z,1.70
2022-08-21T13:44:03.065Z,2.08
2022-08-21T13:46:36.297Z,1.58
2022-08-21T13:49:06.170Z,1.73
2022-08-21T13:51:34.470Z,1.95
2022-08-21T13:54:02.348Z,1.80
2022-08-21T13:56:29.591Z,1.52
2022-08-21T13:58:58.794Z,1.48
2022-08-21T14:01:31.240Z,1.45
2022-08-21T14:04:28.452Z,1.88
2022-08-21T14:06:55.647Z,1.75
2022-08-21T14:09:33.452Z,1.73
2022-08-21T14:12:04.597Z,1.63
2022-08-21T14:14:34.963Z,3.42
2022-08-21T14:17:24.573Z,1.83
2022-08-21T14:19:53.180Z,1.70
2022-08-21T14:22:48.044Z,2.90
2022-08-21T14:25:21.113Z,1.30
2022-08-21T14:28:19.654Z,1.98
2022-08-21T14:30:47.976Z,2.15
2022-08-21T14:33:30.930Z,1.60
2022-08-21T14:35:59.087Z,1.85
2022-08-21T14:38:29.178Z,1.52
2022-08-21T14:41:00.073Z,1.67
2022-08-21T14:43:29.126Z,1.85
2022-08-21T14:45:57.419Z,1.90
2022-08-21T14:48:24.728Z,1.63
2022-08-21T14:50:54.992Z,2.00
2022-08-21T14:53:24.141Z,1.50
2022-08-21T14:56:06.266Z,1.83
2022-08-21T14:58:36.428Z,1.55
2022-08-21T15:01:06.159Z,1.60
2022-08-21T15:03:34.650Z,1.88
2022-08-21T15:06:04.585Z,1.85
2022-08-21T15:08:33.519Z,1.65
2022-08-21T15:11:42.447Z,1.65
2022-08-21T15:13:56.296Z,1.83
2022-08-21T15:16:24.352Z,1.80
2022-08-21T15:18:51.951Z,1.88
2022-08-21T15:21:19.373Z,2.83
2022-08-21T15:23:46.445Z,1.90
2022-08-21T15:26:16.876Z,1.70
2022-08-21T15:28:43.964Z,1.95
2022-08-21T15:31:11.838Z,1.52
2022-08-21T15:33:38.926Z,1.90
2022-08-21T15:36:06.469Z,1.83
2022-08-21T15:38:34.282Z,1.75
2022-08-21T15:41:04.370Z,2.75
2022-08-21T15:43:46.484Z,2.00
2022-08-21T15:46:15.566Z,2.08
2022-08-21T15:48:43.171Z,2.17
2022-08-21T15:51:12.406Z,2.08
2022-08-21T15:53:41.435Z,2.40
2022-08-21T15:56:17.600Z,1.80
2022-08-21T15:58:44.830Z,1.85
2022-08-21T16:01:12.173Z,2.40
2022-08-21T16:03:40.195Z,1.80
2022-08-21T16:06:08.012Z,1.88
2022-08-21T16:08:35.316Z,2.28
2022-08-21T16:11:02.992Z,2.38
2022-08-21T16:13:39.041Z,1.80
2022-08-21T16:16:08.758Z,1.88
2022-08-21T16:18:35.950Z,1.88
2022-08-21T16:21:03.122Z,2.20
2022-08-21T16:23:30.349Z,1.92
2022-08-21T16:25:59.849Z,1.90
2022-08-21T16:28:27.847Z,1.73
2022-08-21T16:30:55.396Z,1.90
2022-08-21T16:33:36.196Z,1.77
2022-08-21T16:36:06.887Z,2.05
2022-08-21T16:38:37.122Z,1.90
2022-08-21T16:41:09.233Z,2.05
2022-08-21T16:43:36.643Z,1.80
2022-08-21T16:46:03.820Z,2.00
2022-08-21T16:48:31.221Z,1.90
2022-08-21T16:50:59.226Z,2.70
2022-08-21T16:53:28.280Z,2.03
2022-08-21T16:55:55.975Z,1.75
2022-08-21T16:58:29.809Z,2.15
2022-08-21T17:00:58.902Z,1.90
2022-08-21T17:03:35.562Z,2.08
2022-08-21T17:06:03.274Z,2.00
2022-08-21T17:08:30.333Z,2.60
2022-08-21T17:10:58.555Z,2.05
2022-08-21T17:13:27.026Z,2.20
2022-08-21T17:15:54.345Z,2.20
2022-08-21T17:18:23.958Z,1.60
2022-08-21T17:20:51.464Z,2.08
2022-08-21T17:23:19.874Z,2.17
2022-08-21T17:25:51.083Z,2.50
2022-08-21T17:28:23.764Z,2.25
2022-08-21T17:30:52.452Z,2.25
2022-08-21T17:33:20.614Z,2.25
2022-08-21T17:35:48.008Z,1.90
2022-08-21T17:38:15.269Z,3.08
2022-08-21T17:40:43.695Z,2.28
2022-08-21T17:43:13.207Z,2.00
2022-08-21T17:45:42.302Z,2.25
2022-08-21T17:48:10.540Z,2.03
2022-08-21T17:50:37.876Z,2.05
2022-08-21T17:53:05.089Z,2.10
2022-08-21T17:55:34.858Z,2.10
2022-08-21T17:58:03.851Z,1.80
2022-08-21T18:00:32.121Z,8.88
2022-08-21T18:03:16.165Z,2.70
2022-08-21T18:05:46.072Z,2.20
2022-08-21T18:08:14.805Z,2.10
2022-08-21T18:10:46.032Z,1.98
2022-08-21T18:13:23.068Z,2.60
2022-08-21T18:15:52.503Z,2.25
2022-08-21T18:18:21.781Z,2.45
2022-08-21T18:20:49.867Z,2.08
2022-08-21T18:23:17.282Z,2.13
2022-08-21T18:25:49.045Z,3.10
2022-08-21T18:28:17.795Z,2.58
2022-08-21T18:30:45.857Z,3.38
2022-08-21T18:33:14.344Z,2.70
2022-08-21T18:35:42.734Z,2.20
2022-08-21T18:38:10.639Z,3.00
2022-08-21T18:40:43.485Z,2.17
2022-08-21T18:43:15.521Z,2.03
2022-08-21T18:45:44.336Z,2.28
2022-08-21T18:48:14.925Z,2.50
2022-08-21T18:50:45.734Z,2.80
2022-08-21T18:53:24.706Z,2.42
2022-08-21T18:58:44.574Z,2.28
2022-08-21T19:01:13.404Z,2.30
2022-08-21T19:03:41.407Z,2.10
2022-08-21T19:06:09.739Z,2.33
2022-08-21T19:08:39.098Z,2.28
2022-08-21T19:11:07.185Z,3.05
2022-08-21T19:13:35.655Z,2.83
2022-08-21T19:16:05.327Z,2.67
2022-08-21T19:18:37.884Z,2.88
2022-08-21T19:21:07.165Z,2.60
2022-08-21T19:23:35.667Z,2.97
2022-08-21T19:26:05.933Z,2.92
2022-08-21T19:28:40.390Z,2.83
2022-08-21T19:31:13.239Z,2.67
2022-08-21T19:33:50.743Z,2.60
2022-08-21T19:36:19.053Z,2.53
2022-08-21T19:38:47.470Z,2.75
2022-08-21T19:41:17.116Z,2.92
2022-08-21T19:43:49.913Z,2.85
2022-08-21T19:46:27.210Z,2.42
2022-08-21T19:48:55.539Z,2.55
2022-08-21T19:51:24.241Z,3.05
2022-08-21T19:53:57.295Z,3.28
2022-08-21T19:56:27.280Z,3.03
2022-08-21T19:58:56.422Z,3.90
2022-08-21T20:01:26.132Z,3.35
2022-08-21T20:03:57.163Z,2.60
2022-08-21T20:06:25.922Z,3.15
2022-08-21T20:08:55.244Z,2.88
2022-08-21T20:11:39.912Z,2.85
2022-08-21T20:14:09.745Z,2.75
2022-08-21T20:16:38.153Z,2.50
2022-08-21T20:19:10.387Z,2.97
2022-08-21T20:21:43.755Z,2.58
2022-08-21T20:24:14.665Z,3.20
2022-08-21T20:26:49.409Z,2.40
2022-08-21T20:32:12.166Z,2.53
2022-08-21T20:34:40.438Z,2.63
2022-08-21T20:37:09.365Z,2.78
2022-08-21T20:39:36.994Z,2.58
2022-08-21T20:42:07.060Z,3.13
2022-08-21T20:44:36.028Z,3.05
2022-08-21T20:47:09.160Z,2.90
2022-08-21T20:49:45.983Z,2.92
2022-08-21T20:52:16.244Z,3.40
2022-08-21T20:54:53.722Z,2.78
2022-08-21T20:57:31.841Z,3.05
2022-08-21T21:00:06.056Z,2.60
2022-08-21T21:02:52.498Z,2.80
2022-08-21T21:05:43.374Z,3.42
2022-08-21T21:08:25.335Z,2.90
2022-08-21T21:11:20.172Z,3.22
2022-08-21T21:14:15.730Z,3.00
2022-08-21T21:16:59.000Z,3.38
2022-08-21T21:19:44.419Z,2.63
2022-08-21T21:22:20.659Z,2.65
2022-08-21T21:25:01.074Z,3.00
2022-08-21T21:27:57.433Z,2.90
2022-08-21T21:30:40.418Z,3.20
2022-08-21T21:33:16.600Z,3.45
2022-08-21T21:35:59.903Z,3.17
2022-08-21T21:38:51.758Z,3.22
2022-08-21T21:42:06.943Z,3.03
2022-08-21T21:44:35.055Z,3.17
2022-08-21T21:47:21.839Z,3.67
2022-08-21T21:49:51.072Z,3.28
2022-08-21T21:52:43.270Z,3.63
2022-08-21T21:55:42.987Z,3.35
2022-08-21T21:58:36.379Z,3.30
2022-08-21T22:01:17.091Z,3.33
2022-08-21T22:04:10.669Z,3.60
2022-08-21T22:06:53.031Z,3.45
2022-08-21T22:09:40.489Z,3.50
2022-08-21T22:12:49.555Z,3.38
2022-08-21T22:15:26.470Z,3.05
2022-08-21T22:18:28.814Z,3.08
2022-08-21T22:21:39.215Z,3.13
2022-08-21T22:24:15.597Z,3.25
2022-08-21T22:26:51.001Z,3.33
2022-08-21T22:29:22.349Z,3.20
2022-08-21T22:32:05.636Z,3.22
2022-08-21T22:34:34.301Z,3.22
2022-08-21T22:37:06.549Z,3.38
2022-08-21T22:39:39.473Z,3.58
2022-08-21T22:42:14.056Z,3.60
2022-08-21T22:44:57.918Z,3.60
2022-08-21T22:47:44.900Z,3.53
2022-08-21T22:50:18.534Z,3.65
2022-08-21T22:52:49.775Z,3.20
2022-08-21T22:55:24.684Z,3.58
2022-08-21T22:58:12.589Z,3.10
2022-08-21T23:01:05.296Z,3.47
2022-08-21T23:03:47.065Z,3.10
2022-08-21T23:06:35.024Z,3.10
2022-08-21T23:09:03.600Z,3.38
2022-08-21T23:11:42.973Z,3.03
2022-08-21T23:14:14.100Z,3.45
2022-08-21T23:17:02.815Z,3.15
2022-08-21T23:19:54.259Z,2.97
2022-08-21T23:22:47.457Z,3.13
2022-08-21T23:25:33.270Z,3.10
2022-08-21T23:28:19.061Z,3.55
2022-08-21T23:31:01.517Z,3.30
2022-08-21T23:33:45.571Z,3.97
2022-08-21T23:36:37.956Z,3.88
2022-08-21T23:39:20.468Z,4.00
2022-08-21T23:42:07.933Z,3.22
2022-08-21T23:44:50.838Z,3.63
2022-08-21T23:47:57.366Z,3.45
2022-08-21T23:50:42.532Z,3.75
2022-08-21T23:53:31.027Z,3.20
2022-08-21T23:56:09.309Z,3.20
2022-08-21T23:59:04.649Z,3.75
